sensor_id;sensor_type;location;lat;lon;timestamp;P1;durP1;ratioP1;P2;durP2;ratioP2
36191;SDS011;22233;42.708;23.360;2023-05-17T00:02:33;6.22;;;3.60;;
36191;SDS011;22233;42.708;23.360;2023-05-17T00:04:58;9.57;;;4.72;;
36191;SDS011;22233;42.708;23.360;2023-05-17T00:07:24;10.35;;;4.63;;
36191;SDS011;22233;42.708;23.360;2023-05-17T00:09:49;6.80;;;3.65;;
36191;SDS011;22233;42.708;23.360;2023-05-17T00:12:15;8.57;;;4.63;;
36191;SDS011;22233;42.708;23.360;2023-05-17T00:14:40;6.95;;;3.65;;
36191;SDS011;22233;42.708;23.360;2023-05-17T00:17:06;11.88;;;3.63;;
36191;SDS011;22233;42.708;23.360;2023-05-17T00:19:31;8.35;;;4.00;;
36191;SDS011;22233;42.708;23.360;2023-05-17T00:21:56;7.65;;;3.70;;
36191;SDS011;22233;42.708;23.360;2023-05-17T00:24:22;6.93;;;3.85;;
36191;SDS011;22233;42.708;23.360;2023-05-17T00:26:47;5.57;;;4.10;;
36191;SDS011;22233;42.708;23.360;2023-05-17T00:29:13;7.57;;;3.75;;
36191;SDS011;22233;42.708;23.360;2023-05-17T00:31:38;9.55;;;3.80;;
36191;SDS011;22233;42.708;23.360;2023-05-17T00:34:03;9.50;;;3.90;;
36191;SDS011;22233;42.708;23.360;2023-05-17T00:36:29;8.95;;;4.07;;
36191;SDS011;22233;42.708;23.360;2023-05-17T00:38:54;9.48;;;3.88;;
36191;SDS011;22233;42.708;23.360;2023-05-17T00:41:20;8.10;;;3.63;;
36191;SDS011;22233;42.708;23.360;2023-05-17T00:43:45;10.43;;;3.90;;
36191;SDS011;22233;42.708;23.360;2023-05-17T00:46:11;6.97;;;3.78;;
36191;SDS011;22233;42.708;23.360;2023-05-17T00:48:36;9.45;;;3.40;;
36191;SDS011;22233;42.708;23.360;2023-05-17T00:51:02;8.75;;;3.50;;
36191;SDS011;22233;42.708;23.360;2023-05-17T00:53:27;8.07;;;3.45;;
36191;SDS011;22233;42.708;23.360;2023-05-17T00:55:53;10.05;;;3.60;;
36191;SDS011;22233;42.708;23.360;2023-05-17T00:58:20;7.10;;;3.67;;
36191;SDS011;22233;42.708;23.360;2023-05-17T01:00:46;11.07;;;3.97;;
36191;SDS011;22233;42.708;23.360;2023-05-17T01:03:11;6.75;;;3.53;;
36191;SDS011;22233;42.708;23.360;2023-05-17T01:05:37;6.75;;;3.80;;
36191;SDS011;22233;42.708;23.360;2023-05-17T01:08:02;8.27;;;4.40;;
36191;SDS011;22233;42.708;23.360;2023-05-17T01:10:35;6.72;;;3.78;;
36191;SDS011;22233;42.708;23.360;2023-05-17T01:14:08;9.23;;;3.95;;
36191;SDS011;22233;42.708;23.360;2023-05-17T01:16:17;6.47;;;3.85;;
36191;SDS011;22233;42.708;23.360;2023-05-17T01:18:52;8.48;;;4.32;;
36191;SDS011;22233;42.708;23.360;2023-05-17T01:27:03;6.55;;;4.43;;
36191;SDS011;22233;42.708;23.360;2023-05-17T01:29:31;10.00;;;4.85;;
36191;SDS011;22233;42.708;23.360;2023-05-17T01:32:00;9.82;;;4.45;;
36191;SDS011;22233;42.708;23.360;2023-05-17T01:34:27;11.25;;;4.65;;
36191;SDS011;22233;42.708;23.360;2023-05-17T01:36:53;8.15;;;4.32;;
36191;SDS011;22233;42.708;23.360;2023-05-17T01:39:19;10.40;;;4.05;;
36191;SDS011;22233;42.708;23.360;2023-05-17T01:41:46;7.95;;;4.93;;
36191;SDS011;22233;42.708;23.360;2023-05-17T01:44:32;9.52;;;4.88;;
36191;SDS011;22233;42.708;23.360;2023-05-17T01:47:12;8.30;;;4.43;;
36191;SDS011;22233;42.708;23.360;2023-05-17T01:49:44;12.68;;;4.53;;
36191;SDS011;22233;42.708;23.360;2023-05-17T01:57:19;8.13;;;4.15;;
36191;SDS011;22233;42.708;23.360;2023-05-17T01:59:52;9.35;;;3.78;;
36191;SDS011;22233;42.708;23.360;2023-05-17T02:02:19;7.63;;;3.95;;
36191;SDS011;22233;42.708;23.360;2023-05-17T02:04:46;8.07;;;3.83;;
36191;SDS011;22233;42.708;23.360;2023-05-17T02:07:12;9.90;;;4.10;;
36191;SDS011;22233;42.708;23.360;2023-05-17T02:09:37;7.65;;;4.15;;
36191;SDS011;22233;42.708;23.360;2023-05-17T02:12:03;7.53;;;4.82;;
36191;SDS011;22233;42.708;23.360;2023-05-17T02:14:28;8.73;;;4.28;;
36191;SDS011;22233;42.708;23.360;2023-05-17T02:16:54;6.25;;;4.15;;
36191;SDS011;22233;42.708;23.360;2023-05-17T02:19:19;12.85;;;4.65;;
36191;SDS011;22233;42.708;23.360;2023-05-17T02:21:45;12.68;;;4.88;;
36191;SDS011;22233;42.708;23.360;2023-05-17T02:24:10;10.43;;;4.68;;
36191;SDS011;22233;42.708;23.360;2023-05-17T02:26:36;8.05;;;4.38;;
36191;SDS011;22233;42.708;23.360;2023-05-17T02:29:01;10.65;;;4.68;;
36191;SDS011;22233;42.708;23.360;2023-05-17T02:31:27;8.48;;;4.32;;
36191;SDS011;22233;42.708;23.360;2023-05-17T02:33:52;10.77;;;4.50;;
36191;SDS011;22233;42.708;23.360;2023-05-17T02:36:18;10.75;;;4.45;;
36191;SDS011;22233;42.708;23.360;2023-05-17T02:38:44;9.82;;;4.70;;
36191;SDS011;22233;42.708;23.360;2023-05-17T02:41:09;9.60;;;4.22;;
36191;SDS011;22233;42.708;23.360;2023-05-17T02:43:34;9.13;;;4.63;;
36191;SDS011;22233;42.708;23.360;2023-05-17T02:46:00;11.00;;;5.18;;
36191;SDS011;22233;42.708;23.360;2023-05-17T02:48:25;12.40;;;5.82;;
36191;SDS011;22233;42.708;23.360;2023-05-17T02:50:51;8.35;;;4.85;;
36191;SDS011;22233;42.708;23.360;2023-05-17T02:53:16;12.38;;;6.10;;
36191;SDS011;22233;42.708;23.360;2023-05-17T02:55:42;8.55;;;5.28;;
36191;SDS011;22233;42.708;23.360;2023-05-17T02:58:07;9.75;;;5.93;;
36191;SDS011;22233;42.708;23.360;2023-05-17T03:00:32;12.77;;;5.70;;
36191;SDS011;22233;42.708;23.360;2023-05-17T03:02:58;14.52;;;5.20;;
36191;SDS011;22233;42.708;23.360;2023-05-17T03:05:23;8.90;;;5.85;;
36191;SDS011;22233;42.708;23.360;2023-05-17T03:07:49;10.35;;;5.70;;
36191;SDS011;22233;42.708;23.360;2023-05-17T03:10:14;13.48;;;5.63;;
36191;SDS011;22233;42.708;23.360;2023-05-17T03:12:40;13.38;;;5.55;;
36191;SDS011;22233;42.708;23.360;2023-05-17T03:15:06;10.38;;;5.15;;
36191;SDS011;22233;42.708;23.360;2023-05-17T03:17:32;9.38;;;4.95;;
36191;SDS011;22233;42.708;23.360;2023-05-17T03:19:57;11.73;;;5.07;;
36191;SDS011;22233;42.708;23.360;2023-05-17T03:22:23;9.15;;;5.47;;
36191;SDS011;22233;42.708;23.360;2023-05-17T03:24:48;10.65;;;6.47;;
36191;SDS011;22233;42.708;23.360;2023-05-17T03:27:13;13.88;;;5.85;;
36191;SDS011;22233;42.708;23.360;2023-05-17T03:29:39;12.20;;;5.38;;
36191;SDS011;22233;42.708;23.360;2023-05-17T03:32:04;10.88;;;5.93;;
36191;SDS011;22233;42.708;23.360;2023-05-17T03:34:30;17.27;;;7.00;;
36191;SDS011;22233;42.708;23.360;2023-05-17T03:36:56;12.57;;;6.70;;
36191;SDS011;22233;42.708;23.360;2023-05-17T03:39:21;14.02;;;7.70;;
36191;SDS011;22233;42.708;23.360;2023-05-17T03:41:47;10.40;;;7.95;;
36191;SDS011;22233;42.708;23.360;2023-05-17T03:44:12;16.45;;;8.98;;
36191;SDS011;22233;42.708;23.360;2023-05-17T03:46:37;19.33;;;8.60;;
36191;SDS011;22233;42.708;23.360;2023-05-17T03:49:03;15.27;;;8.60;;
36191;SDS011;22233;42.708;23.360;2023-05-17T03:51:28;14.02;;;8.98;;
36191;SDS011;22233;42.708;23.360;2023-05-17T03:53:57;15.73;;;8.98;;
36191;SDS011;22233;42.708;23.360;2023-05-17T03:56:24;15.95;;;9.20;;
36191;SDS011;22233;42.708;23.360;2023-05-17T03:58:50;13.20;;;9.73;;
36191;SDS011;22233;42.708;23.360;2023-05-17T04:01:15;17.77;;;9.63;;
36191;SDS011;22233;42.708;23.360;2023-05-17T04:03:41;15.85;;;9.52;;
36191;SDS011;22233;42.708;23.360;2023-05-17T04:06:07;17.92;;;10.73;;
36191;SDS011;22233;42.708;23.360;2023-05-17T04:08:33;17.90;;;9.80;;
36191;SDS011;22233;42.708;23.360;2023-05-17T04:10:59;15.27;;;10.82;;
36191;SDS011;22233;42.708;23.360;2023-05-17T04:13:33;18.48;;;10.95;;
36191;SDS011;22233;42.708;23.360;2023-05-17T04:16:00;19.27;;;10.88;;
36191;SDS011;22233;42.708;23.360;2023-05-17T04:18:25;18.88;;;11.82;;
36191;SDS011;22233;42.708;23.360;2023-05-17T04:20:51;15.45;;;11.02;;
36191;SDS011;22233;42.708;23.360;2023-05-17T04:23:16;14.25;;;11.25;;
36191;SDS011;22233;42.708;23.360;2023-05-17T04:25:42;18.48;;;11.55;;
36191;SDS011;22233;42.708;23.360;2023-05-17T04:28:07;17.08;;;11.75;;
36191;SDS011;22233;42.708;23.360;2023-05-17T04:30:33;17.23;;;10.60;;
36191;SDS011;22233;42.708;23.360;2023-05-17T04:32:58;16.92;;;12.18;;
36191;SDS011;22233;42.708;23.360;2023-05-17T04:35:24;14.20;;;10.70;;
36191;SDS011;22233;42.708;23.360;2023-05-17T04:37:50;16.20;;;12.32;;
36191;SDS011;22233;42.708;23.360;2023-05-17T04:40:16;15.35;;;12.45;;
36191;SDS011;22233;42.708;23.360;2023-05-17T04:42:42;14.98;;;11.30;;
36191;SDS011;22233;42.708;23.360;2023-05-17T04:45:07;15.65;;;11.23;;
36191;SDS011;22233;42.708;23.360;2023-05-17T04:47:34;16.33;;;11.07;;
36191;SDS011;22233;42.708;23.360;2023-05-17T04:49:59;15.18;;;10.38;;
36191;SDS011;22233;42.708;23.360;2023-05-17T04:52:25;16.15;;;11.23;;
36191;SDS011;22233;42.708;23.360;2023-05-17T04:54:50;13.85;;;10.77;;
36191;SDS011;22233;42.708;23.360;2023-05-17T04:57:16;17.52;;;11.27;;
36191;SDS011;22233;42.708;23.360;2023-05-17T04:59:41;16.00;;;10.13;;
36191;SDS011;22233;42.708;23.360;2023-05-17T05:02:06;15.10;;;10.88;;
36191;SDS011;22233;42.708;23.360;2023-05-17T05:04:32;20.08;;;11.55;;
36191;SDS011;22233;42.708;23.360;2023-05-17T05:06:57;14.43;;;11.10;;
36191;SDS011;22233;42.708;23.360;2023-05-17T05:09:23;15.90;;;12.00;;
36191;SDS011;22233;42.708;23.360;2023-05-17T05:11:48;16.90;;;10.85;;
36191;SDS011;22233;42.708;23.360;2023-05-17T05:14:13;16.60;;;11.63;;
36191;SDS011;22233;42.708;23.360;2023-05-17T05:16:39;21.33;;;11.50;;
36191;SDS011;22233;42.708;23.360;2023-05-17T05:19:04;16.08;;;11.13;;
36191;SDS011;22233;42.708;23.360;2023-05-17T05:21:30;17.65;;;11.10;;
36191;SDS011;22233;42.708;23.360;2023-05-17T05:23:56;18.77;;;11.07;;
36191;SDS011;22233;42.708;23.360;2023-05-17T05:26:21;19.70;;;12.05;;
36191;SDS011;22233;42.708;23.360;2023-05-17T05:28:46;16.40;;;9.93;;
36191;SDS011;22233;42.708;23.360;2023-05-17T05:31:12;16.48;;;9.38;;
36191;SDS011;22233;42.708;23.360;2023-05-17T05:33:37;16.65;;;9.75;;
36191;SDS011;22233;42.708;23.360;2023-05-17T05:36:02;15.07;;;10.45;;
36191;SDS011;22233;42.708;23.360;2023-05-17T05:38:28;14.43;;;9.80;;
36191;SDS011;22233;42.708;23.360;2023-05-17T05:40:53;17.00;;;8.93;;
36191;SDS011;22233;42.708;23.360;2023-05-17T05:43:19;12.82;;;9.05;;
36191;SDS011;22233;42.708;23.360;2023-05-17T05:45:44;13.55;;;7.93;;
36191;SDS011;22233;42.708;23.360;2023-05-17T05:48:14;10.38;;;7.32;;
36191;SDS011;22233;42.708;23.360;2023-05-17T05:50:42;13.52;;;8.07;;
36191;SDS011;22233;42.708;23.360;2023-05-17T05:53:11;11.65;;;7.53;;
36191;SDS011;22233;42.708;23.360;2023-05-17T05:55:42;12.70;;;7.13;;
36191;SDS011;22233;42.708;23.360;2023-05-17T05:58:08;13.45;;;8.35;;
36191;SDS011;22233;42.708;23.360;2023-05-17T06:00:34;12.25;;;7.57;;
36191;SDS011;22233;42.708;23.360;2023-05-17T06:03:01;11.50;;;7.30;;
36191;SDS011;22233;42.708;23.360;2023-05-17T06:05:26;13.18;;;7.60;;
36191;SDS011;22233;42.708;23.360;2023-05-17T06:07:52;17.67;;;8.15;;
36191;SDS011;22233;42.708;23.360;2023-05-17T06:10:17;11.48;;;8.02;;
36191;SDS011;22233;42.708;23.360;2023-05-17T06:12:42;10.52;;;7.07;;
36191;SDS011;22233;42.708;23.360;2023-05-17T06:15:08;19.10;;;7.55;;
36191;SDS011;22233;42.708;23.360;2023-05-17T06:17:34;10.70;;;7.75;;
36191;SDS011;22233;42.708;23.360;2023-05-17T06:20:00;12.95;;;7.45;;
36191;SDS011;22233;42.708;23.360;2023-05-17T06:22:25;11.80;;;7.40;;
36191;SDS011;22233;42.708;23.360;2023-05-17T06:24:50;10.02;;;8.18;;
36191;SDS011;22233;42.708;23.360;2023-05-17T06:27:16;12.68;;;7.25;;
36191;SDS011;22233;42.708;23.360;2023-05-17T06:29:41;10.75;;;6.93;;
36191;SDS011;22233;42.708;23.360;2023-05-17T06:32:07;12.32;;;7.50;;
36191;SDS011;22233;42.708;23.360;2023-05-17T06:34:32;9.70;;;7.40;;
36191;SDS011;22233;42.708;23.360;2023-05-17T06:36:58;12.25;;;7.57;;
36191;SDS011;22233;42.708;23.360;2023-05-17T06:39:23;18.63;;;9.05;;
36191;SDS011;22233;42.708;23.360;2023-05-17T06:41:49;15.18;;;8.18;;
36191;SDS011;22233;42.708;23.360;2023-05-17T06:44:14;14.50;;;8.00;;
36191;SDS011;22233;42.708;23.360;2023-05-17T06:46:40;14.82;;;8.20;;
36191;SDS011;22233;42.708;23.360;2023-05-17T06:49:05;15.02;;;7.72;;
36191;SDS011;22233;42.708;23.360;2023-05-17T06:51:31;14.02;;;9.02;;
36191;SDS011;22233;42.708;23.360;2023-05-17T06:53:56;16.00;;;8.88;;
36191;SDS011;22233;42.708;23.360;2023-05-17T06:56:21;15.00;;;9.15;;
36191;SDS011;22233;42.708;23.360;2023-05-17T06:58:47;14.30;;;8.77;;
36191;SDS011;22233;42.708;23.360;2023-05-17T07:01:12;15.88;;;8.77;;
36191;SDS011;22233;42.708;23.360;2023-05-17T07:03:38;13.20;;;8.98;;
36191;SDS011;22233;42.708;23.360;2023-05-17T07:06:03;13.63;;;8.02;;
36191;SDS011;22233;42.708;23.360;2023-05-17T07:08:29;13.88;;;8.65;;
36191;SDS011;22233;42.708;23.360;2023-05-17T07:10:54;13.00;;;8.68;;
36191;SDS011;22233;42.708;23.360;2023-05-17T07:13:20;11.13;;;8.23;;
36191;SDS011;22233;42.708;23.360;2023-05-17T07:15:45;13.15;;;8.45;;
36191;SDS011;22233;42.708;23.360;2023-05-17T07:18:11;14.70;;;9.60;;
36191;SDS011;22233;42.708;23.360;2023-05-17T07:20:36;18.85;;;9.30;;
36191;SDS011;22233;42.708;23.360;2023-05-17T07:23:02;16.70;;;9.82;;
36191;SDS011;22233;42.708;23.360;2023-05-17T07:25:27;15.75;;;8.73;;
36191;SDS011;22233;42.708;23.360;2023-05-17T07:27:53;14.15;;;8.38;;
36191;SDS011;22233;42.708;23.360;2023-05-17T07:30:18;20.42;;;9.40;;
36191;SDS011;22233;42.708;23.360;2023-05-17T07:32:48;21.20;;;9.52;;
36191;SDS011;22233;42.708;23.360;2023-05-17T07:35:13;16.13;;;9.07;;
36191;SDS011;22233;42.708;23.360;2023-05-17T07:37:39;15.23;;;9.43;;
36191;SDS011;22233;42.708;23.360;2023-05-17T07:40:04;20.33;;;9.20;;
36191;SDS011;22233;42.708;23.360;2023-05-17T07:42:31;14.27;;;8.93;;
36191;SDS011;22233;42.708;23.360;2023-05-17T07:44:57;13.07;;;8.88;;
36191;SDS011;22233;42.708;23.360;2023-05-17T07:47:22;14.02;;;9.23;;
36191;SDS011;22233;42.708;23.360;2023-05-17T07:49:47;14.00;;;8.43;;
36191;SDS011;22233;42.708;23.360;2023-05-17T07:52:13;15.80;;;9.20;;
36191;SDS011;22233;42.708;23.360;2023-05-17T07:54:38;23.35;;;9.77;;
36191;SDS011;22233;42.708;23.360;2023-05-17T07:57:04;16.83;;;9.75;;
36191;SDS011;22233;42.708;23.360;2023-05-17T07:59:29;16.25;;;8.50;;
36191;SDS011;22233;42.708;23.360;2023-05-17T08:01:55;17.40;;;9.15;;
36191;SDS011;22233;42.708;23.360;2023-05-17T08:04:20;22.13;;;10.68;;
36191;SDS011;22233;42.708;23.360;2023-05-17T08:06:48;15.02;;;8.90;;
36191;SDS011;22233;42.708;23.360;2023-05-17T08:09:14;16.38;;;8.40;;
36191;SDS011;22233;42.708;23.360;2023-05-17T08:11:40;13.48;;;9.02;;
36191;SDS011;22233;42.708;23.360;2023-05-17T08:14:13;18.80;;;9.57;;
36191;SDS011;22233;42.708;23.360;2023-05-17T08:16:43;25.58;;;10.35;;
36191;SDS011;22233;42.708;23.360;2023-05-17T08:19:16;27.25;;;10.80;;
36191;SDS011;22233;42.708;23.360;2023-05-17T08:21:42;15.00;;;8.75;;
36191;SDS011;22233;42.708;23.360;2023-05-17T08:24:08;15.57;;;8.65;;
36191;SDS011;22233;42.708;23.360;2023-05-17T08:26:33;12.43;;;7.55;;
36191;SDS011;22233;42.708;23.360;2023-05-17T08:29:00;15.60;;;8.10;;
36191;SDS011;22233;42.708;23.360;2023-05-17T08:31:26;18.33;;;10.00;;
36191;SDS011;22233;42.708;23.360;2023-05-17T08:33:52;13.07;;;7.78;;
36191;SDS011;22233;42.708;23.360;2023-05-17T08:36:17;19.65;;;9.10;;
36191;SDS011;22233;42.708;23.360;2023-05-17T08:38:43;16.17;;;8.23;;
36191;SDS011;22233;42.708;23.360;2023-05-17T08:41:09;13.82;;;8.27;;
36191;SDS011;22233;42.708;23.360;2023-05-17T08:43:34;11.75;;;7.60;;
36191;SDS011;22233;42.708;23.360;2023-05-17T08:46:00;18.63;;;9.85;;
36191;SDS011;22233;42.708;23.360;2023-05-17T08:48:28;15.45;;;8.60;;
36191;SDS011;22233;42.708;23.360;2023-05-17T08:50:57;15.35;;;8.55;;
36191;SDS011;22233;42.708;23.360;2023-05-17T08:53:24;18.97;;;9.17;;
36191;SDS011;22233;42.708;23.360;2023-05-17T08:55:50;16.60;;;8.68;;
36191;SDS011;22233;42.708;23.360;2023-05-17T08:58:23;13.88;;;8.35;;
36191;SDS011;22233;42.708;23.360;2023-05-17T09:00:51;12.75;;;7.63;;
36191;SDS011;22233;42.708;23.360;2023-05-17T09:03:18;16.67;;;7.85;;
36191;SDS011;22233;42.708;23.360;2023-05-17T09:05:49;17.73;;;8.60;;
36191;SDS011;22233;42.708;23.360;2023-05-17T09:08:17;10.82;;;7.55;;
36191;SDS011;22233;42.708;23.360;2023-05-17T09:10:48;10.95;;;7.70;;
36191;SDS011;22233;42.708;23.360;2023-05-17T09:13:14;12.50;;;6.97;;
36191;SDS011;22233;42.708;23.360;2023-05-17T09:15:43;11.85;;;6.85;;
36191;SDS011;22233;42.708;23.360;2023-05-17T09:18:11;11.10;;;6.80;;
36191;SDS011;22233;42.708;23.360;2023-05-17T09:20:36;14.98;;;7.55;;
36191;SDS011;22233;42.708;23.360;2023-05-17T09:23:04;13.65;;;6.18;;
36191;SDS011;22233;42.708;23.360;2023-05-17T09:25:31;9.63;;;6.72;;
36191;SDS011;22233;42.708;23.360;2023-05-17T09:28:01;11.30;;;7.00;;
36191;SDS011;22233;42.708;23.360;2023-05-17T09:30:29;11.45;;;7.25;;
36191;SDS011;22233;42.708;23.360;2023-05-17T09:32:55;14.27;;;7.20;;
36191;SDS011;22233;42.708;23.360;2023-05-17T09:35:27;10.35;;;6.88;;
36191;SDS011;22233;42.708;23.360;2023-05-17T09:37:54;15.52;;;7.50;;
36191;SDS011;22233;42.708;23.360;2023-05-17T09:40:29;11.13;;;6.72;;
36191;SDS011;22233;42.708;23.360;2023-05-17T09:42:54;12.10;;;6.82;;
36191;SDS011;22233;42.708;23.360;2023-05-17T09:45:20;14.80;;;6.75;;
36191;SDS011;22233;42.708;23.360;2023-05-17T09:47:49;14.85;;;7.80;;
36191;SDS011;22233;42.708;23.360;2023-05-17T09:50:18;12.25;;;6.85;;
36191;SDS011;22233;42.708;23.360;2023-05-17T09:52:44;10.75;;;6.07;;
36191;SDS011;22233;42.708;23.360;2023-05-17T09:55:10;13.32;;;6.22;;
36191;SDS011;22233;42.708;23.360;2023-05-17T09:57:37;9.20;;;6.00;;
36191;SDS011;22233;42.708;23.360;2023-05-17T10:02:36;8.30;;;5.50;;
36191;SDS011;22233;42.708;23.360;2023-05-17T10:05:03;12.73;;;6.28;;
36191;SDS011;22233;42.708;23.360;2023-05-17T10:09:55;7.93;;;4.82;;
36191;SDS011;22233;42.708;23.360;2023-05-17T10:12:22;12.02;;;5.57;;
36191;SDS011;22233;42.708;23.360;2023-05-17T10:14:51;10.57;;;5.10;;
36191;SDS011;22233;42.708;23.360;2023-05-17T10:17:19;11.48;;;4.97;;
36191;SDS011;22233;42.708;23.360;2023-05-17T10:19:46;9.43;;;5.18;;
36191;SDS011;22233;42.708;23.360;2023-05-17T10:22:11;13.82;;;5.70;;
36191;SDS011;22233;42.708;23.360;2023-05-17T10:24:37;9.77;;;5.22;;
36191;SDS011;22233;42.708;23.360;2023-05-17T10:27:04;14.80;;;6.27;;
36191;SDS011;22233;42.708;23.360;2023-05-17T10:29:32;10.90;;;5.22;;
36191;SDS011;22233;42.708;23.360;2023-05-17T10:32:01;12.57;;;6.20;;
36191;SDS011;22233;42.708;23.360;2023-05-17T10:34:28;12.18;;;5.57;;
36191;SDS011;22233;42.708;23.360;2023-05-17T10:36:55;11.57;;;5.35;;
36191;SDS011;22233;42.708;23.360;2023-05-17T10:39:21;9.50;;;5.80;;
36191;SDS011;22233;42.708;23.360;2023-05-17T10:41:51;12.48;;;6.40;;
36191;SDS011;22233;42.708;23.360;2023-05-17T10:46:54;10.77;;;5.40;;
36191;SDS011;22233;42.708;23.360;2023-05-17T10:49:24;9.75;;;4.82;;
36191;SDS011;22233;42.708;23.360;2023-05-17T10:51:51;12.32;;;5.88;;
36191;SDS011;22233;42.708;23.360;2023-05-17T10:54:16;11.15;;;5.43;;
36191;SDS011;22233;42.708;23.360;2023-05-17T10:59:26;14.40;;;6.05;;
36191;SDS011;22233;42.708;23.360;2023-05-17T11:04:39;14.00;;;5.38;;
36191;SDS011;22233;42.708;23.360;2023-05-17T11:09:53;12.00;;;6.07;;
36191;SDS011;22233;42.708;23.360;2023-05-17T11:22:58;15.23;;;6.43;;
36191;SDS011;22233;42.708;23.360;2023-05-17T11:25:27;10.55;;;6.80;;
36191;SDS011;22233;42.708;23.360;2023-05-17T11:27:59;11.65;;;5.63;;
36191;SDS011;22233;42.708;23.360;2023-05-17T11:30:30;14.45;;;6.13;;
36191;SDS011;22233;42.708;23.360;2023-05-17T11:40:24;13.30;;;5.90;;
36191;SDS011;22233;42.708;23.360;2023-05-17T11:45:55;17.83;;;6.57;;
36191;SDS011;22233;42.708;23.360;2023-05-17T11:48:23;9.52;;;5.88;;
36191;SDS011;22233;42.708;23.360;2023-05-17T11:53:16;11.37;;;5.80;;
36191;SDS011;22233;42.708;23.360;2023-05-17T11:55:43;9.57;;;5.47;;
36191;SDS011;22233;42.708;23.360;2023-05-17T11:58:12;10.80;;;5.60;;
36191;SDS011;22233;42.708;23.360;2023-05-17T12:05:45;12.57;;;6.13;;
36191;SDS011;22233;42.708;23.360;2023-05-17T12:08:13;10.95;;;5.53;;
36191;SDS011;22233;42.708;23.360;2023-05-17T12:10:50;7.63;;;5.07;;
36191;SDS011;22233;42.708;23.360;2023-05-17T12:13:16;8.23;;;5.40;;
36191;SDS011;22233;42.708;23.360;2023-05-17T12:16:01;7.03;;;5.32;;
36191;SDS011;22233;42.708;23.360;2023-05-17T12:18:48;9.80;;;5.82;;
36191;SDS011;22233;42.708;23.360;2023-05-17T12:21:15;10.05;;;6.25;;
36191;SDS011;22233;42.708;23.360;2023-05-17T12:26:09;13.75;;;5.70;;
36191;SDS011;22233;42.708;23.360;2023-05-17T12:28:40;11.93;;;4.55;;
36191;SDS011;22233;42.708;23.360;2023-05-17T12:31:07;12.60;;;5.38;;
36191;SDS011;22233;42.708;23.360;2023-05-17T12:33:36;9.68;;;5.70;;
36191;SDS011;22233;42.708;23.360;2023-05-17T12:36:05;11.27;;;6.20;;
36191;SDS011;22233;42.708;23.360;2023-05-17T12:38:32;10.95;;;5.35;;
36191;SDS011;22233;42.708;23.360;2023-05-17T12:41:04;11.70;;;5.60;;
36191;SDS011;22233;42.708;23.360;2023-05-17T12:43:32;10.93;;;6.03;;
36191;SDS011;22233;42.708;23.360;2023-05-17T12:46:18;10.05;;;5.68;;
36191;SDS011;22233;42.708;23.360;2023-05-17T12:51:12;7.50;;;5.78;;
36191;SDS011;22233;42.708;23.360;2023-05-17T12:53:40;9.75;;;5.45;;
36191;SDS011;22233;42.708;23.360;2023-05-17T12:56:08;12.43;;;6.65;;
36191;SDS011;22233;42.708;23.360;2023-05-17T12:58:39;10.65;;;5.53;;
36191;SDS011;22233;42.708;23.360;2023-05-17T13:01:05;8.20;;;5.43;;
36191;SDS011;22233;42.708;23.360;2023-05-17T13:03:38;11.07;;;5.95;;
36191;SDS011;22233;42.708;23.360;2023-05-17T13:06:04;10.88;;;5.68;;
36191;SDS011;22233;42.708;23.360;2023-05-17T13:08:33;7.90;;;5.25;;
36191;SDS011;22233;42.708;23.360;2023-05-17T13:11:09;9.02;;;5.30;;
36191;SDS011;22233;42.708;23.360;2023-05-17T13:13:39;7.95;;;5.55;;
36191;SDS011;22233;42.708;23.360;2023-05-17T13:16:05;8.13;;;5.40;;
36191;SDS011;22233;42.708;23.360;2023-05-17T13:18:47;6.25;;;4.97;;
36191;SDS011;22233;42.708;23.360;2023-05-17T13:21:16;7.68;;;5.45;;
36191;SDS011;22233;42.708;23.360;2023-05-17T13:26:13;8.68;;;4.82;;
36191;SDS011;22233;42.708;23.360;2023-05-17T13:28:39;10.02;;;5.35;;
36191;SDS011;22233;42.708;23.360;2023-05-17T13:31:05;7.25;;;5.43;;
36191;SDS011;22233;42.708;23.360;2023-05-17T13:33:30;12.63;;;5.78;;
36191;SDS011;22233;42.708;23.360;2023-05-17T13:35:56;8.55;;;5.40;;
36191;SDS011;22233;42.708;23.360;2023-05-17T13:38:21;7.10;;;4.47;;
36191;SDS011;22233;42.708;23.360;2023-05-17T13:40:47;8.55;;;5.95;;
36191;SDS011;22233;42.708;23.360;2023-05-17T13:43:12;6.07;;;4.40;;
36191;SDS011;22233;42.708;23.360;2023-05-17T13:45:39;7.25;;;4.50;;
36191;SDS011;22233;42.708;23.360;2023-05-17T13:48:04;8.93;;;5.03;;
36191;SDS011;22233;42.708;23.360;2023-05-17T13:50:30;7.50;;;4.30;;
36191;SDS011;22233;42.708;23.360;2023-05-17T13:52:55;7.97;;;4.15;;
36191;SDS011;22233;42.708;23.360;2023-05-17T13:55:21;8.68;;;5.10;;
36191;SDS011;22233;42.708;23.360;2023-05-17T13:57:46;7.50;;;3.90;;
36191;SDS011;22233;42.708;23.360;2023-05-17T14:00:12;7.30;;;3.97;;
36191;SDS011;22233;42.708;23.360;2023-05-17T14:02:37;8.20;;;4.25;;
36191;SDS011;22233;42.708;23.360;2023-05-17T14:05:04;8.32;;;3.97;;
36191;SDS011;22233;42.708;23.360;2023-05-17T14:07:31;10.63;;;4.45;;
36191;SDS011;22233;42.708;23.360;2023-05-17T14:09:57;5.60;;;4.32;;
36191;SDS011;22233;42.708;23.360;2023-05-17T14:12:22;8.18;;;4.13;;
36191;SDS011;22233;42.708;23.360;2023-05-17T14:14:48;6.13;;;3.60;;
36191;SDS011;22233;42.708;23.360;2023-05-17T14:17:14;11.73;;;4.82;;
36191;SDS011;22233;42.708;23.360;2023-05-17T14:19:39;5.72;;;3.75;;
36191;SDS011;22233;42.708;23.360;2023-05-17T14:22:04;9.73;;;3.35;;
36191;SDS011;22233;42.708;23.360;2023-05-17T14:24:30;7.00;;;3.60;;
36191;SDS011;22233;42.708;23.360;2023-05-17T14:26:55;7.18;;;3.67;;
36191;SDS011;22233;42.708;23.360;2023-05-17T14:29:21;9.30;;;4.50;;
36191;SDS011;22233;42.708;23.360;2023-05-17T14:31:47;8.13;;;3.58;;
36191;SDS011;22233;42.708;23.360;2023-05-17T14:34:12;8.00;;;4.07;;
36191;SDS011;22233;42.708;23.360;2023-05-17T14:36:38;5.40;;;3.60;;
36191;SDS011;22233;42.708;23.360;2023-05-17T14:39:03;6.75;;;3.80;;
36191;SDS011;22233;42.708;23.360;2023-05-17T14:41:29;6.47;;;4.40;;
36191;SDS011;22233;42.708;23.360;2023-05-17T14:43:55;5.70;;;3.53;;
36191;SDS011;22233;42.708;23.360;2023-05-17T14:46:20;5.75;;;3.70;;
36191;SDS011;22233;42.708;23.360;2023-05-17T14:48:46;6.28;;;3.30;;
36191;SDS011;22233;42.708;23.360;2023-05-17T14:51:11;6.03;;;3.95;;
36191;SDS011;22233;42.708;23.360;2023-05-17T14:53:37;5.05;;;2.97;;
36191;SDS011;22233;42.708;23.360;2023-05-17T14:56:02;6.45;;;3.22;;
36191;SDS011;22233;42.708;23.360;2023-05-17T14:58:28;7.97;;;3.17;;
36191;SDS011;22233;42.708;23.360;2023-05-17T15:00:54;4.80;;;3.28;;
36191;SDS011;22233;42.708;23.360;2023-05-17T15:03:23;6.93;;;3.08;;
36191;SDS011;22233;42.708;23.360;2023-05-17T15:05:52;7.22;;;3.28;;
36191;SDS011;22233;42.708;23.360;2023-05-17T15:08:18;5.63;;;3.17;;
36191;SDS011;22233;42.708;23.360;2023-05-17T15:10:44;3.25;;;2.30;;
36191;SDS011;22233;42.708;23.360;2023-05-17T15:13:10;6.60;;;2.75;;
36191;SDS011;22233;42.708;23.360;2023-05-17T15:15:35;5.43;;;2.95;;
36191;SDS011;22233;42.708;23.360;2023-05-17T15:18:01;4.22;;;2.67;;
36191;SDS011;22233;42.708;23.360;2023-05-17T15:20:26;9.35;;;4.15;;
36191;SDS011;22233;42.708;23.360;2023-05-17T15:22:51;9.27;;;3.95;;
36191;SDS011;22233;42.708;23.360;2023-05-17T15:25:17;11.25;;;4.80;;